createdAt,value
2023-02-24T00:01:19.379Z,8.60
2023-02-24T00:06:24.216Z,8.40
2023-02-24T00:11:28.309Z,8.30
2023-02-24T00:16:33.413Z,8.30
2023-02-24T00:21:37.602Z,8.10
2023-02-24T00:26:41.701Z,7.90
2023-02-24T00:31:47.369Z,7.80
2023-02-24T00:36:51.294Z,7.70
2023-02-24T00:41:58.812Z,7.50
2023-02-24T00:47:05.076Z,7.30
2023-02-24T00:52:18.276Z,7.30
2023-02-24T00:57:22.246Z,7.10
2023-02-24T01:02:27.454Z,6.90
2023-02-24T01:07:31.303Z,6.90
2023-02-24T01:12:50.888Z,6.80
2023-02-24T01:17:55.326Z,6.70
2023-02-24T01:22:59.252Z,6.50
2023-02-24T01:28:04.361Z,6.50
2023-02-24T01:33:08.534Z,6.50
2023-02-24T01:38:12.382Z,6.50
2023-02-24T01:43:17.498Z,6.40
2023-02-24T01:48:22.186Z,6.40
2023-02-24T01:53:25.724Z,6.30
2023-02-24T01:58:30.471Z,6.30
2023-02-24T02:03:37.353Z,6.30
2023-02-24T02:08:43.874Z,6.40
2023-02-24T02:13:50.679Z,6.40
2023-02-24T02:19:40.321Z,6.50
2023-02-24T02:24:46.797Z,6.60
2023-02-24T02:30:29.862Z,6.70
2023-02-24T02:36:14.674Z,6.70
2023-02-24T02:41:35.313Z,6.80
2023-02-24T02:46:45.101Z,6.80
2023-02-24T02:52:13.862Z,6.90
2023-02-24T02:57:29.197Z,6.90
2023-02-24T03:02:40.210Z,6.90
2023-02-24T03:07:51.828Z,6.80
2023-02-24T03:13:00.116Z,6.70
2023-02-24T03:18:11.009Z,6.60
2023-02-24T03:23:27.516Z,6.70
2023-02-24T03:28:40.312Z,6.80
2023-02-24T03:34:08.365Z,6.80
2023-02-24T03:39:12.645Z,6.90
2023-02-24T03:44:25.109Z,7.10
2023-02-24T03:49:30.533Z,7.20
2023-02-24T03:54:48.831Z,7.30
2023-02-24T04:00:23.350Z,7.40
2023-02-24T04:05:34.618Z,7.50
2023-02-24T04:11:11.398Z,7.60
2023-02-24T04:16:28.237Z,7.60
2023-02-24T04:21:34.001Z,7.60
2023-02-24T04:26:41.022Z,7.60
2023-02-24T04:31:54.889Z,7.50
2023-02-24T04:37:02.928Z,7.50
2023-02-24T04:42:07.560Z,7.40
2023-02-24T04:47:12.456Z,7.30
2023-02-24T04:52:20.846Z,7.30
2023-02-24T04:57:25.203Z,7.10
2023-02-24T05:02:29.046Z,7.10
2023-02-24T05:07:33.714Z,7.10
2023-02-24T05:12:40.811Z,7.00
2023-02-24T05:17:45.214Z,6.80
2023-02-24T05:22:53.182Z,6.80
2023-02-24T05:27:58.097Z,6.70
2023-02-24T05:33:03.717Z,6.70
2023-02-24T05:38:08.506Z,6.60
2023-02-24T05:43:16.231Z,6.50
2023-02-24T05:48:20.134Z,6.50
2023-02-24T05:53:24.340Z,6.50
2023-02-24T05:58:29.206Z,6.60
2023-02-24T06:03:36.133Z,6.70
2023-02-24T06:08:43.845Z,6.70
2023-02-24T06:13:49.044Z,6.80
2023-02-24T06:18:57.014Z,6.70
2023-02-24T06:24:01.045Z,6.60
2023-02-24T06:29:06.705Z,6.60
2023-02-24T06:34:14.496Z,6.60
2023-02-24T06:39:19.097Z,6.50
2023-02-24T06:44:24.485Z,6.60
2023-02-24T06:49:30.710Z,6.80
2023-02-24T06:54:36.343Z,7.00
2023-02-24T06:59:40.543Z,7.30
2023-02-24T07:04:44.748Z,7.40
2023-02-24T07:09:49.380Z,7.40
2023-02-24T07:14:54.851Z,7.60
2023-02-24T07:20:04.087Z,7.70
2023-02-24T07:25:08.141Z,7.80
2023-02-24T07:30:12.644Z,7.90
2023-02-24T07:35:16.870Z,8.00
2023-02-24T07:40:22.629Z,8.20
2023-02-24T07:45:26.685Z,8.20
2023-02-24T07:50:33.312Z,8.20
2023-02-24T07:55:37.323Z,8.20
2023-02-24T08:00:51.255Z,8.40
2023-02-24T08:06:13.336Z,8.80
2023-02-24T08:11:17.901Z,8.90
2023-02-24T08:16:22.438Z,8.90
2023-02-24T08:21:27.464Z,8.80
2023-02-24T08:26:33.045Z,8.80
2023-02-24T08:31:37.109Z,8.80
2023-02-24T08:36:48.113Z,8.80
2023-02-24T08:41:54.520Z,9.00
2023-02-24T08:46:58.725Z,9.20
2023-02-24T08:52:02.962Z,9.30
2023-02-24T08:57:10.054Z,9.30
2023-02-24T09:02:24.257Z,9.30
2023-02-24T09:07:36.136Z,9.30
2023-02-24T09:12:42.777Z,9.40
2023-02-24T09:17:46.588Z,9.40
2023-02-24T09:23:12.001Z,9.50
2023-02-24T09:28:18.323Z,9.70
2023-02-24T09:33:30.075Z,9.80
2023-02-24T09:38:51.805Z,9.90
2023-02-24T09:44:00.483Z,10.20
2023-02-24T09:49:40.260Z,10.50
2023-02-24T09:55:14.054Z,10.90
2023-02-24T10:00:26.395Z,11.40
2023-02-24T10:05:49.556Z,11.50
2023-02-24T10:11:10.079Z,11.60
2023-02-24T10:16:24.393Z,11.60
2023-02-24T10:22:00.499Z,11.40
2023-02-24T10:27:17.310Z,11.50
2023-02-24T10:32:50.242Z,11.40
2023-02-24T10:37:59.622Z,11.80
2023-02-24T10:43:11.070Z,12.10
2023-02-24T10:48:43.100Z,12.50
2023-02-24T10:53:53.617Z,13.00
2023-02-24T10:59:25.150Z,13.20
2023-02-24T11:05:04.825Z,13.20
2023-02-24T11:10:26.421Z,13.60
2023-02-24T11:16:02.513Z,13.90
2023-02-24T11:21:10.469Z,13.90
2023-02-24T11:26:19.435Z,14.00
2023-02-24T11:31:52.761Z,14.10
2023-02-24T11:37:16.495Z,13.80
2023-02-24T11:42:33.031Z,13.50
2023-02-24T11:47:44.269Z,13.50
2023-02-24T11:52:52.937Z,13.50
2023-02-24T11:57:59.433Z,13.80
2023-02-24T12:03:37.649Z,14.10
2023-02-24T12:08:45.155Z,14.40
2023-02-24T12:14:00.005Z,14.70
2023-02-24T12:19:15.439Z,14.90
2023-02-24T12:24:22.044Z,15.50
2023-02-24T12:29:49.437Z,16.10
2023-02-24T12:35:34.423Z,16.40
2023-02-24T12:40:58.645Z,16.90
2023-02-24T12:46:24.037Z,18.10
2023-02-24T12:51:46.662Z,18.70
2023-02-24T12:57:03.990Z,18.20
2023-02-24T13:02:24.426Z,17.90
2023-02-24T13:07:37.631Z,18.20
2023-02-24T13:13:10.147Z,18.60
2023-02-24T13:18:27.808Z,18.30
2023-02-24T13:23:32.528Z,17.40
2023-02-24T13:28:38.715Z,16.50
2023-02-24T13:33:44.618Z,15.50
2023-02-24T13:38:54.288Z,14.80
2023-02-24T13:44:01.190Z,14.30
2023-02-24T13:49:30.671Z,14.30
2023-02-24T13:54:53.028Z,14.20
2023-02-24T14:00:28.888Z,14.20
2023-02-24T14:05:36.746Z,14.10
2023-02-24T14:10:46.068Z,13.90
2023-02-24T14:15:50.184Z,13.90
2023-02-24T14:20:55.888Z,13.80
2023-02-24T14:26:11.869Z,13.70
2023-02-24T14:31:17.608Z,13.40
2023-02-24T14:36:25.427Z,13.20
2023-02-24T14:41:29.539Z,13.10
2023-02-24T14:46:33.632Z,13.10
2023-02-24T14:51:37.931Z,13.20
2023-02-24T14:56:41.770Z,13.20
2023-02-24T15:01:49.793Z,13.10
2023-02-24T15:06:53.900Z,13.10
2023-02-24T15:11:58.529Z,13.00
2023-02-24T15:17:10.510Z,13.00
2023-02-24T15:22:22.436Z,12.90
2023-02-24T15:27:28.876Z,12.90
2023-02-24T15:32:35.375Z,12.90
2023-02-24T15:37:45.277Z,12.80
2023-02-24T15:42:56.372Z,12.70
2023-02-24T15:48:03.164Z,12.80
2023-02-24T15:53:09.541Z,12.70
2023-02-24T15:58:22.932Z,12.70
2023-02-24T16:03:26.678Z,12.60
2023-02-24T16:08:30.971Z,12.50
2023-02-24T16:13:35.868Z,12.40
2023-02-24T16:18:44.064Z,12.30
2023-02-24T16:23:48.850Z,12.20
2023-02-24T16:28:55.414Z,12.00
2023-02-24T16:33:59.401Z,11.90
2023-02-24T16:39:06.541Z,11.90
2023-02-24T16:44:11.314Z,11.80
2023-02-24T16:49:20.399Z,11.60
2023-02-24T16:54:29.636Z,11.50
2023-02-24T16:59:33.603Z,11.50
2023-02-24T17:04:38.021Z,11.40
2023-02-24T17:09:41.876Z,11.40
2023-02-24T17:14:46.046Z,11.30
2023-02-24T17:19:51.941Z,11.10
2023-02-24T17:24:56.146Z,10.90
2023-02-24T17:30:00.325Z,10.70
2023-02-24T17:35:05.986Z,10.60
2023-02-24T17:40:14.647Z,10.50
2023-02-24T17:45:19.302Z,10.40
2023-02-24T17:50:23.193Z,10.30
2023-02-24T17:55:27.524Z,10.30
2023-02-24T18:00:31.791Z,10.20
2023-02-24T18:05:37.536Z,10.10
2023-02-24T18:10:42.627Z,10.10
2023-02-24T18:15:47.442Z,10.10
2023-02-24T18:20:53.461Z,10.10
2023-02-24T18:26:03.594Z,10.00
2023-02-24T18:31:31.149Z,9.90
2023-02-24T18:36:36.237Z,9.90
2023-02-24T18:41:41.830Z,9.90
2023-02-24T18:46:46.536Z,9.90
2023-02-24T18:51:51.683Z,9.80
2023-02-24T18:56:56.520Z,9.70
